Time;durP1;ratioP1;P1;durP2;ratioP2;P2;SDS_P1;SDS_P2;PMS_P1;PMS_P2;Temp;Humidity;BMP_temperature;BMP_pressure;BME280_temperature;BME280_humidity;BME280_pressure;Samples;Min_cycle;Max_cycle;Signal;HPM_P1;HPM_P2
2022/02/13 00:00:55;;;;;;;8.47;4.73;;;-2.20;99.90;;;;;;5007409;28;20027;-81
2022/02/13 00:03:21;;;;;;;8.43;4.90;;;-2.20;99.90;;;;;;4992178;28;20486;-81
2022/02/13 00:05:47;;;;;;;7.53;4.43;;;-2.30;99.90;;;;;;4992408;28;20467;-81
2022/02/13 00:08:13;;;;;;;8.73;5.07;;;-2.30;99.90;;;;;;4992197;28;20019;-81
2022/02/13 00:10:38;;;;;;;16.70;5.53;;;-2.30;99.90;;;;;;4995645;28;20022;-81
2022/02/13 00:13:04;;;;;;;13.27;5.20;;;-2.30;99.90;;;;;;5011522;28;20030;-81
2022/02/13 00:15:30;;;;;;;10.57;5.27;;;-2.30;99.90;;;;;;4994482;28;20033;-81
2022/02/13 00:17:55;;;;;;;11.07;6.00;;;-2.30;99.90;;;;;;4994273;28;20033;-82
2022/02/13 00:20:21;;;;;;;10.10;5.47;;;-2.30;99.90;;;;;;5014372;28;20121;-82
2022/02/13 00:22:47;;;;;;;7.93;4.70;;;-2.40;99.90;;;;;;5015649;28;20030;-82
2022/02/13 00:25:13;;;;;;;10.07;5.37;;;-2.30;99.90;;;;;;5015480;28;20447;-82
2022/02/13 00:27:38;;;;;;;10.93;5.63;;;-2.40;99.90;;;;;;5015533;28;20367;-82
2022/02/13 00:30:07;;;;;;;9.27;5.13;;;-2.40;99.90;;;;;;5015450;28;20061;-82
2022/02/13 00:32:33;;;;;;;10.40;6.13;;;-2.40;99.90;;;;;;5015459;28;20018;-82
2022/02/13 00:34:59;;;;;;;10.17;5.20;;;-2.40;99.90;;;;;;5015333;28;20084;-82
2022/02/13 00:37:24;;;;;;;10.57;5.10;;;-2.50;99.90;;;;;;5015443;28;20422;-82
2022/02/13 00:39:50;;;;;;;9.57;4.50;;;-2.50;99.90;;;;;;5015684;28;20060;-83
2022/02/13 00:42:15;;;;;;;10.57;5.97;;;-2.50;99.90;;;;;;5015475;28;20037;-82
2022/02/13 00:44:41;;;;;;;9.13;5.27;;;-2.50;99.90;;;;;;5015106;28;20103;-82
2022/02/13 00:47:08;;;;;;;12.63;5.17;;;-2.50;99.90;;;;;;4997677;28;20384;-82
2022/02/13 00:49:34;;;;;;;8.33;4.87;;;-2.50;99.90;;;;;;5015155;28;20018;-82
2022/02/13 00:51:59;;;;;;;9.33;4.47;;;-2.50;99.90;;;;;;5015260;28;20471;-82
2022/02/13 00:54:25;;;;;;;11.03;4.90;;;-2.50;99.90;;;;;;5014621;28;20038;-82
2022/02/13 00:56:50;;;;;;;8.93;3.80;;;-2.50;99.90;;;;;;5014854;28;20056;-82
2022/02/13 00:59:16;;;;;;;9.90;5.33;;;-2.50;99.90;;;;;;5015073;28;20379;-82
2022/02/13 01:01:42;;;;;;;8.93;5.33;;;-2.30;99.90;;;;;;4997550;28;20029;-82
2022/02/13 01:04:07;;;;;;;12.17;5.47;;;-2.40;99.90;;;;;;5008062;28;20036;-83
2022/02/13 01:06:33;;;;;;;11.30;5.00;;;-2.40;99.90;;;;;;5014267;28;20471;-83
2022/02/13 01:08:59;;;;;;;14.50;6.80;;;-2.40;99.90;;;;;;5014709;28;20033;-83
2022/02/13 01:11:24;;;;;;;11.00;6.20;;;-2.40;99.90;;;;;;4997084;28;20076;-82
2022/02/13 01:13:50;;;;;;;14.40;5.97;;;-2.40;99.90;;;;;;5014459;28;20030;-83
2022/02/13 01:16:16;;;;;;;12.00;5.67;;;-2.50;99.90;;;;;;5014709;28;20037;-83
2022/02/13 01:18:42;;;;;;;9.47;5.57;;;-2.50;99.90;;;;;;5014510;28;20030;-82
2022/02/13 01:21:08;;;;;;;12.90;6.23;;;-2.50;99.90;;;;;;5014448;28;20065;-82
2022/02/13 01:23:34;;;;;;;11.53;5.40;;;-2.60;99.90;;;;;;5013956;28;20038;-82
2022/02/13 01:26:00;;;;;;;8.30;4.87;;;-2.60;99.90;;;;;;5014366;28;20382;-82
2022/02/13 01:28:26;;;;;;;8.07;4.70;;;-2.60;99.90;;;;;;5013963;28;20076;-82
2022/02/13 01:30:52;;;;;;;7.10;4.07;;;-2.60;99.90;;;;;;5014249;28;20014;-82
2022/02/13 01:33:17;;;;;;;5.83;3.30;;;-2.60;99.90;;;;;;5013938;28;20358;-82
2022/02/13 01:35:43;;;;;;;7.00;4.13;;;-2.50;99.90;;;;;;5013792;28;20041;-82
2022/02/13 01:38:09;;;;;;;9.73;4.30;;;-2.50;99.90;;;;;;5013690;28;20022;-82
2022/02/13 01:40:34;;;;;;;7.73;4.60;;;-2.50;99.90;;;;;;5014239;28;20025;-82
2022/02/13 01:43:00;;;;;;;7.37;4.47;;;-2.50;99.90;;;;;;5013896;28;20061;-82
2022/02/13 01:45:25;;;;;;;9.40;5.80;;;-2.50;99.90;;;;;;5012445;28;20026;-82
2022/02/13 01:47:51;;;;;;;10.47;5.33;;;-2.50;99.90;;;;;;4995483;28;20128;-82
2022/02/13 01:50:16;;;;;;;11.37;5.50;;;-2.50;99.90;;;;;;5013570;28;20025;-82
2022/02/13 01:52:42;;;;;;;10.47;5.33;;;-2.60;99.90;;;;;;5013748;28;20033;-82
2022/02/13 01:55:10;;;;;;;10.00;4.77;;;-2.60;99.90;;;;;;5013447;28;20494;-82
2022/02/13 01:57:36;;;;;;;9.77;4.80;;;-2.60;99.90;;;;;;5013369;28;20486;-82
2022/02/13 02:00:03;;;;;;;8.13;4.70;;;-2.70;99.90;;;;;;5013480;28;20053;-82
2022/02/13 02:02:28;;;;;;;9.27;4.97;;;-2.70;99.90;;;;;;5013478;28;20180;-82
2022/02/13 02:04:54;;;;;;;8.93;4.47;;;-2.70;99.90;;;;;;5011793;28;20469;-82
2022/02/13 02:07:20;;;;;;;10.53;4.80;;;-2.70;99.90;;;;;;5013278;28;20398;-82
2022/02/13 02:09:47;;;;;;;9.73;5.33;;;-2.70;99.90;;;;;;5013143;28;20102;-82
2022/02/13 02:12:12;;;;;;;10.60;5.20;;;-2.70;99.90;;;;;;5013366;28;20037;-82
2022/02/13 02:14:38;;;;;;;8.60;4.63;;;-2.70;99.90;;;;;;5012995;28;20044;-82
2022/02/13 02:17:04;;;;;;;7.93;4.90;;;-2.70;99.90;;;;;;5013380;28;20385;-82
2022/02/13 02:19:31;;;;;;;8.80;4.63;;;-2.70;99.90;;;;;;5012803;28;20034;-82
2022/02/13 02:21:57;;;;;;;6.47;4.30;;;-2.70;99.90;;;;;;5013344;28;20026;-82
2022/02/13 02:24:23;;;;;;;8.73;4.93;;;-2.60;99.90;;;;;;5012676;28;20084;-82
2022/02/13 02:26:49;;;;;;;6.17;3.70;;;-2.60;99.90;;;;;;5013332;28;20482;-82
2022/02/13 02:29:15;;;;;;;8.73;4.60;;;-2.60;99.90;;;;;;5012992;28;20029;-82
2022/02/13 02:31:40;;;;;;;7.17;3.70;;;-2.50;99.90;;;;;;5012890;28;20113;-82
2022/02/13 02:34:06;;;;;;;6.53;3.30;;;-2.60;99.90;;;;;;4995292;28;20026;-82
2022/02/13 02:36:32;;;;;;;8.17;3.40;;;-2.60;99.90;;;;;;4995245;28;20120;-81
2022/02/13 02:38:58;;;;;;;4.97;2.73;;;-2.60;99.90;;;;;;5012696;28;20436;-81
2022/02/13 02:41:24;;;;;;;4.97;2.90;;;-2.50;99.90;;;;;;5012671;28;20033;-82
2022/02/13 02:43:50;;;;;;;6.27;2.30;;;-2.40;99.90;;;;;;5011968;28;20029;-82
2022/02/13 02:46:15;;;;;;;7.10;3.93;;;-2.30;99.90;;;;;;5012901;28;20022;-82
2022/02/13 02:48:41;;;;;;;6.37;3.30;;;-2.30;99.90;;;;;;5012555;28;20018;-82
2022/02/13 02:51:07;;;;;;;5.43;3.20;;;-2.30;99.90;;;;;;5012627;28;20026;-82
2022/02/13 02:53:36;;;;;;;6.67;2.90;;;-2.30;99.90;;;;;;5012432;28;20353;-82
2022/02/13 02:56:03;;;;;;;5.50;3.03;;;-2.40;99.90;;;;;;4992959;28;20052;-81
2022/02/13 02:58:29;;;;;;;8.27;3.90;;;-2.30;99.90;;;;;;4992826;28;20041;-81
2022/02/13 03:00:54;;;;;;;5.50;2.87;;;-2.30;99.90;;;;;;4995122;28;20022;-81
2022/02/13 03:03:20;;;;;;;6.30;3.50;;;-2.40;99.90;;;;;;5000705;28;20061;-81
2022/02/13 03:05:48;;;;;;;5.03;2.93;;;-2.40;99.90;;;;;;4992471;28;20117;-81
2022/02/13 03:08:17;;;;;;;5.80;3.43;;;-2.30;99.90;;;;;;5011040;28;20478;-81
2022/02/13 03:10:44;;;;;;;7.33;3.23;;;-2.40;99.90;;;;;;5011494;28;20022;-81
2022/02/13 03:13:14;;;;;;;9.70;4.50;;;-2.50;99.90;;;;;;5011301;28;20022;-81
2022/02/13 03:15:40;;;;;;;10.10;5.70;;;-2.40;99.90;;;;;;5011174;28;20384;-81
2022/02/13 03:18:06;;;;;;;14.50;6.43;;;-2.50;99.90;;;;;;5011049;28;20029;-81
2022/02/13 03:20:32;;;;;;;11.17;6.33;;;-2.60;99.90;;;;;;5011383;28;20419;-81
2022/02/13 03:22:58;;;;;;;13.70;6.97;;;-2.60;99.90;;;;;;5011453;28;20490;-81
2022/02/13 03:25:23;;;;;;;11.97;6.63;;;-2.70;99.90;;;;;;5011306;28;20382;-81
2022/02/13 03:27:49;;;;;;;11.73;5.97;;;-2.70;99.90;;;;;;4993659;28;20057;-81
2022/02/13 03:30:15;;;;;;;10.07;5.03;;;-2.80;99.90;;;;;;4993831;28;20033;-81
2022/02/13 03:32:40;;;;;;;12.50;5.77;;;-2.80;99.90;;;;;;4993879;28;20084;-81
2022/02/13 03:35:06;;;;;;;12.67;5.90;;;-2.80;99.90;;;;;;5011455;28;20104;-81
2022/02/13 03:37:32;;;;;;;11.37;4.97;;;-2.80;99.90;;;;;;5011439;28;20090;-81
2022/02/13 03:39:57;;;;;;;7.57;3.63;;;-2.80;99.90;;;;;;5011427;28;20068;-81
2022/02/13 03:42:23;;;;;;;6.77;3.63;;;-2.80;99.90;;;;;;4994005;28;20482;-81
2022/02/13 03:44:49;;;;;;;4.93;2.53;;;-2.80;99.90;;;;;;4993943;28;20034;-81
2022/02/13 03:47:15;;;;;;;4.73;2.93;;;-2.80;99.90;;;;;;5011860;28;20073;-81
2022/02/13 03:49:40;;;;;;;4.40;2.83;;;-2.80;99.90;;;;;;5011358;28;20395;-81
2022/02/13 03:52:07;;;;;;;9.33;2.43;;;-2.80;99.90;;;;;;5011558;28;20026;-81
2022/02/13 03:54:32;;;;;;;4.03;2.60;;;-2.70;99.90;;;;;;5012738;28;20471;-81
2022/02/13 03:56:58;;;;;;;7.37;2.30;;;-2.70;99.90;;;;;;4997727;28;20080;-81
2022/02/13 03:59:24;;;;;;;3.47;2.20;;;-2.70;99.90;;;;;;5015334;28;20037;-81
2022/02/13 04:01:49;;;;;;;3.37;1.70;;;-2.70;99.90;;;;;;4994356;28;20030;-81
2022/02/13 04:04:15;;;;;;;8.37;2.00;;;-2.70;99.90;;;;;;5014444;28;20030;-81
2022/02/13 04:06:41;;;;;;;2.53;1.60;;;-2.70;99.90;;;;;;5015414;28;20022;-81
2022/02/13 04:09:06;;;;;;;2.80;1.40;;;-2.60;99.90;;;;;;4996670;28;20085;-81
2022/02/13 04:11:32;;;;;;;4.10;1.60;;;-2.50;99.90;;;;;;5014319;28;20021;-81
2022/02/13 04:13:57;;;;;;;3.07;1.37;;;-2.50;99.90;;;;;;5014498;28;20030;-81
2022/02/13 04:16:23;;;;;;;4.67;1.40;;;-2.40;99.90;;;;;;4997377;28;20390;-80
2022/02/13 04:18:49;;;;;;;5.10;1.70;;;-2.30;99.90;;;;;;4997488;28;20034;-81
2022/02/13 04:21:15;;;;;;;3.90;1.43;;;-2.20;99.90;;;;;;5015235;28;20037;-81
2022/02/13 04:23:41;;;;;;;2.90;1.23;;;-2.20;99.90;;;;;;5014898;28;20052;-80
2022/02/13 04:26:07;;;;;;;2.13;1.17;;;-2.10;99.90;;;;;;5014984;28;20022;-81
2022/02/13 04:28:32;;;;;;;5.80;1.57;;;-2.00;99.90;;;;;;4997514;28;20030;-81
2022/02/13 04:30:58;;;;;;;2.20;1.03;;;-2.00;99.90;;;;;;4996990;28;20022;-81
2022/02/13 04:33:24;;;;;;;1.47;1.03;;;-1.90;99.90;;;;;;5015034;28;20072;-81
2022/02/13 04:35:49;;;;;;;3.13;1.50;;;-1.80;99.90;;;;;;5015213;28;20495;-81
2022/02/13 04:38:15;;;;;;;2.97;1.50;;;-1.80;99.90;;;;;;5014725;28;20152;-81
2022/02/13 04:40:41;;;;;;;2.43;1.63;;;-1.70;99.90;;;;;;5014785;28;20029;-81
2022/02/13 04:43:07;;;;;;;2.20;1.27;;;-1.60;99.90;;;;;;5014999;28;20030;-81
2022/02/13 04:45:33;;;;;;;2.27;1.27;;;-1.50;99.90;;;;;;5014888;28;20427;-81
2022/02/13 04:47:58;;;;;;;1.93;1.20;;;-1.50;99.90;;;;;;5014861;28;20026;-81
2022/02/13 04:50:24;;;;;;;2.07;1.23;;;-1.40;99.90;;;;;;5014702;28;20030;-81
2022/02/13 04:52:52;;;;;;;2.93;1.60;;;-1.30;99.90;;;;;;5014556;28;20072;-81
2022/02/13 04:55:18;;;;;;;2.80;1.10;;;-1.30;99.90;;;;;;5014590;28;20164;-81
2022/02/13 04:57:45;;;;;;;3.10;1.60;;;-1.40;99.90;;;;;;5014710;28;20543;-81
2022/02/13 05:00:12;;;;;;;3.40;1.50;;;-1.40;99.90;;;;;;5012120;28;20117;-82
2022/02/13 05:02:38;;;;;;;2.43;1.47;;;-1.50;99.90;;;;;;5007811;28;20030;-81
2022/02/13 05:05:04;;;;;;;2.30;1.43;;;-1.50;99.90;;;;;;5005038;28;20036;-81
2022/02/13 05:07:30;;;;;;;2.23;1.20;;;-1.50;99.90;;;;;;5014517;28;20053;-82
2022/02/13 05:09:56;;;;;;;2.60;1.70;;;-1.50;99.90;;;;;;4996933;28;20026;-82
2022/02/13 05:12:22;;;;;;;3.00;1.70;;;-1.60;99.90;;;;;;5014218;28;20474;-82
2022/02/13 05:14:47;;;;;;;2.17;1.37;;;-1.60;99.90;;;;;;5014399;28;20467;-81
2022/02/13 05:17:13;;;;;;;2.67;1.60;;;-1.70;99.90;;;;;;5014485;28;20183;-83
2022/02/13 05:19:39;;;;;;;2.83;1.60;;;-1.70;99.90;;;;;;5014397;28;20022;-82
2022/02/13 05:22:04;;;;;;;3.50;1.90;;;-1.80;99.90;;;;;;5013965;28;20414;-82
2022/02/13 05:24:35;;;;;;;2.87;1.73;;;-1.90;99.90;;;;;;5013240;28;20038;-76
2022/02/13 05:27:06;;;;;;;2.87;1.50;;;-1.90;99.90;;;;;;4995182;28;20084;-76
2022/02/13 05:29:33;;;;;;;3.27;1.70;;;-1.80;99.90;;;;;;5015368;28;20026;-84
2022/02/13 05:32:00;;;;;;;4.80;1.80;;;-1.90;99.90;;;;;;4997729;28;20030;-84
2022/02/13 05:34:26;;;;;;;3.53;2.03;;;-2.00;99.90;;;;;;5015913;28;20025;-84
2022/02/13 05:36:51;;;;;;;3.93;1.63;;;-2.10;99.90;;;;;;5015634;28;20542;-84
2022/02/13 05:39:17;;;;;;;2.87;1.57;;;-2.10;99.90;;;;;;5015319;28;20050;-84
2022/02/13 05:41:45;;;;;;;2.07;1.50;;;-2.10;99.90;;;;;;5015317;28;20026;-84
2022/02/13 05:44:11;;;;;;;5.53;1.80;;;-2.10;99.90;;;;;;5015111;28;20092;-84
2022/02/13 05:46:37;;;;;;;2.20;1.40;;;-2.20;99.90;;;;;;5015146;28;20447;-84
2022/02/13 05:49:02;;;;;;;3.93;1.30;;;-2.20;99.90;;;;;;5015140;28;20021;-85
2022/02/13 05:51:28;;;;;;;2.60;1.40;;;-2.20;99.90;;;;;;5014968;28;20409;-85
2022/02/13 05:53:54;;;;;;;3.03;1.50;;;-2.20;99.90;;;;;;5015335;28;20045;-85
2022/02/13 05:56:20;;;;;;;5.60;1.40;;;-2.20;99.90;;;;;;5014774;28;20467;-85
2022/02/13 05:58:47;;;;;;;5.53;1.60;;;-2.20;99.90;;;;;;5014887;28;20026;-84
2022/02/13 06:01:13;;;;;;;2.70;1.47;;;-2.20;99.90;;;;;;4997208;28;20463;-84
2022/02/13 06:03:39;;;;;;;3.37;1.60;;;-2.20;99.90;;;;;;4997112;28;20041;-85
2022/02/13 06:06:04;;;;;;;2.30;1.47;;;-2.20;99.90;;;;;;5014762;28;20026;-85
2022/02/13 06:08:30;;;;;;;3.83;1.40;;;-2.30;99.90;;;;;;5014979;28;20351;-85
2022/02/13 06:10:56;;;;;;;3.67;1.40;;;-2.30;99.90;;;;;;5015001;28;20049;-85
2022/02/13 06:13:22;;;;;;;4.50;2.00;;;-2.40;99.90;;;;;;5014722;28;20096;-85
2022/02/13 06:15:48;;;;;;;3.33;1.80;;;-2.40;99.90;;;;;;5014625;28;20470;-85
2022/02/13 06:18:14;;;;;;;3.17;1.67;;;-2.40;99.90;;;;;;4996157;28;20026;-85
2022/02/13 06:20:40;;;;;;;2.90;1.40;;;-2.50;99.90;;;;;;5014816;28;20041;-84
2022/02/13 06:23:07;;;;;;;4.60;1.37;;;-2.50;99.90;;;;;;5014423;28;20049;-83
2022/02/13 06:25:33;;;;;;;9.10;1.63;;;-2.50;99.90;;;;;;5014488;28;20052;-84
2022/02/13 06:27:58;;;;;;;4.23;1.40;;;-2.50;99.90;;;;;;5014801;28;20522;-84
2022/02/13 06:30:25;;;;;;;4.43;1.50;;;-2.50;99.90;;;;;;5014619;28;20045;-84
2022/02/13 06:32:50;;;;;;;2.80;1.40;;;-2.50;99.90;;;;;;4996859;28;20382;-85
2022/02/13 06:35:16;;;;;;;3.80;1.93;;;-2.50;99.90;;;;;;5014358;28;20092;-84
2022/02/13 06:37:41;;;;;;;6.13;1.53;;;-2.50;99.90;;;;;;4996634;28;20438;-84
2022/02/13 06:40:07;;;;;;;2.47;1.40;;;-2.60;99.90;;;;;;5014170;28;20413;-84
2022/02/13 06:42:33;;;;;;;3.13;1.63;;;-2.60;99.90;;;;;;5014143;28;20036;-84
2022/02/13 06:44:58;;;;;;;6.63;2.20;;;-2.50;99.90;;;;;;4996252;28;20026;-84
2022/02/13 06:47:24;;;;;;;4.37;2.17;;;-2.50;99.90;;;;;;5014271;28;20018;-84
2022/02/13 06:49:50;;;;;;;2.87;1.50;;;-2.40;99.90;;;;;;4996821;28;20050;-80
2022/02/13 06:52:15;;;;;;;2.67;1.60;;;-2.20;99.90;;;;;;4996433;28;20176;-84
2022/02/13 06:54:41;;;;;;;4.83;2.27;;;-1.90;99.90;;;;;;5013993;28;20493;-85
2022/02/13 06:57:07;;;;;;;5.00;1.80;;;-1.90;99.90;;;;;;5014126;28;20121;-84
2022/02/13 06:59:32;;;;;;;3.63;2.37;;;-2.00;99.90;;;;;;5013837;28;20030;-84
2022/02/13 07:01:58;;;;;;;4.80;2.10;;;-2.10;99.90;;;;;;5013709;28;20038;-85
2022/02/13 07:04:23;;;;;;;4.43;2.37;;;-2.20;99.90;;;;;;5013447;28;20064;-85
2022/02/13 07:06:49;;;;;;;4.40;2.50;;;-2.20;99.90;;;;;;4995942;28;20051;-85
2022/02/13 07:09:15;;;;;;;7.20;3.27;;;-2.20;99.90;;;;;;5013671;28;20402;-85
2022/02/13 07:11:40;;;;;;;6.57;2.93;;;-2.20;99.90;;;;;;4996221;28;20057;-86
2022/02/13 07:14:06;;;;;;;3.13;1.90;;;-2.20;99.90;;;;;;5010530;28;20093;-86
2022/02/13 07:16:31;;;;;;;4.93;2.17;;;-2.10;99.90;;;;;;4992453;28;20025;-86
2022/02/13 07:18:57;;;;;;;5.30;1.80;;;-2.10;99.90;;;;;;5013438;28;20919;-88
2022/02/13 07:21:23;;;;;;;8.30;2.17;;;-2.00;99.90;;;;;;5013496;28;20080;-87
2022/02/13 07:23:48;;;;;;;6.70;1.90;;;-1.90;99.90;;;;;;5013282;28;20487;-87
2022/02/13 07:26:14;;;;;;;5.17;2.00;;;-1.90;99.90;;;;;;4995978;28;20026;-87
2022/02/13 07:31:24;;;;;;;4.83;1.97;;;-1.70;99.90;;;;;;4993922;28;20029;-87
2022/02/13 07:33:49;;;;;;;2.70;1.60;;;-1.60;99.90;;;;;;4993870;28;20097;-87
2022/02/13 07:36:15;;;;;;;4.83;1.90;;;-1.50;99.90;;;;;;5001388;28;20065;-87
2022/02/13 07:38:41;;;;;;;4.37;1.50;;;-1.40;99.90;;;;;;5013241;28;20050;-87
2022/02/13 07:41:07;;;;;;;2.53;1.13;;;-1.20;99.90;;;;;;5013272;28;20042;-86
2022/02/13 07:43:36;;;;;;;1.90;1.20;;;-1.10;99.90;;;;;;5013349;28;20018;-87
2022/02/13 07:46:01;;;;;;;2.40;1.30;;;-0.90;99.90;;;;;;5013248;28;20030;-87
2022/02/13 07:48:27;;;;;;;3.10;1.50;;;-0.70;99.90;;;;;;4995747;28;20379;-88
2022/02/13 07:50:53;;;;;;;7.63;1.30;;;-0.50;99.90;;;;;;5013393;28;20057;-87
2022/02/13 07:53:19;;;;;;;5.97;1.50;;;-0.20;99.90;;;;;;4995916;28;20471;-87
2022/02/13 07:55:44;;;;;;;5.23;1.50;;;0.00;99.90;;;;;;5013530;28;20097;-88
2022/02/13 07:58:10;;;;;;;1.87;1.23;;;0.10;99.90;;;;;;4996755;28;20451;-87
2022/02/13 08:00:36;;;;;;;2.27;1.33;;;0.30;99.90;;;;;;4995572;28;20030;-87
2022/02/13 08:03:02;;;;;;;2.93;1.70;;;0.50;99.90;;;;;;4995538;28;20053;-87
2022/02/13 08:05:28;;;;;;;4.93;1.50;;;0.70;99.90;;;;;;4996015;28;20529;-87
2022/02/13 08:07:53;;;;;;;2.90;1.70;;;0.80;99.90;;;;;;5013204;28;20050;-87
2022/02/13 08:10:19;;;;;;;2.53;1.50;;;1.00;99.90;;;;;;5013317;28;20053;-87
2022/02/13 08:12:46;;;;;;;5.27;2.17;;;1.10;99.90;;;;;;5013281;28;20050;-87
2022/02/13 08:15:12;;;;;;;4.13;1.90;;;1.30;99.90;;;;;;5013125;28;20463;-86
2022/02/13 08:17:37;;;;;;;7.93;3.00;;;1.40;99.90;;;;;;5012765;28;20033;-85
2022/02/13 08:20:07;;;;;;;10.37;3.43;;;1.60;99.90;;;;;;5012249;28;20026;-85
2022/02/13 08:22:34;;;;;;;8.33;3.80;;;1.70;99.90;;;;;;5011577;28;20029;-85
2022/02/13 08:24:59;;;;;;;7.70;2.20;;;1.90;99.90;;;;;;5012423;28;20026;-85
2022/02/13 08:27:25;;;;;;;3.63;2.13;;;2.00;99.90;;;;;;5013558;28;20517;-84
2022/02/13 08:29:52;;;;;;;2.57;1.60;;;2.20;99.90;;;;;;4994846;28;20036;-83
2022/02/13 08:32:18;;;;;;;3.23;1.63;;;2.40;99.90;;;;;;5008332;28;20133;-84
2022/02/13 08:34:45;;;;;;;2.50;1.40;;;2.50;99.90;;;;;;4993977;28;20464;-84
2022/02/13 08:37:14;;;;;;;4.23;1.53;;;2.70;99.90;;;;;;5012122;28;20041;-84
2022/02/13 08:39:40;;;;;;;2.27;1.57;;;2.90;99.90;;;;;;5012358;28;20482;-85
2022/02/13 08:42:07;;;;;;;2.77;1.50;;;3.10;99.90;;;;;;5015882;28;20026;-85
2022/02/13 08:44:33;;;;;;;3.60;1.60;;;3.30;99.90;;;;;;5015805;28;20061;-85
2022/02/13 08:46:58;;;;;;;4.33;1.67;;;3.50;99.90;;;;;;5016000;28;20061;-84
2022/02/13 08:49:24;;;;;;;2.10;1.40;;;3.70;99.90;;;;;;4997911;28;20482;-85
2022/02/13 08:51:49;;;;;;;5.30;1.80;;;3.90;99.90;;;;;;5015807;28;20026;-85
2022/02/13 08:54:15;;;;;;;5.63;1.93;;;4.00;99.90;;;;;;5015579;28;20029;-85
2022/02/13 08:56:41;;;;;;;2.40;1.37;;;4.10;99.90;;;;;;5016082;28;20032;-85
2022/02/13 08:59:06;;;;;;;2.13;1.40;;;4.20;99.90;;;;;;4998099;28;20487;-85
2022/02/13 09:01:32;;;;;;;3.73;1.70;;;4.30;99.90;;;;;;4997676;28;20642;-86
2022/02/13 09:03:57;;;;;;;5.63;1.97;;;4.60;99.90;;;;;;5015810;28;20033;-85
2022/02/13 09:06:23;;;;;;;6.47;1.77;;;4.70;99.90;;;;;;4997497;28;20487;-85
2022/02/13 09:08:49;;;;;;;1.93;1.40;;;4.80;99.90;;;;;;5014553;28;20049;-86
2022/02/13 09:11:15;;;;;;;2.73;1.40;;;5.00;99.90;;;;;;4996568;28;20447;-86
2022/02/13 09:13:40;;;;;;;3.47;1.50;;;5.10;99.90;;;;;;5013558;28;20022;-85
2022/02/13 09:16:06;;;;;;;5.07;1.80;;;5.20;99.90;;;;;;5014956;28;20029;-85
2022/02/13 09:18:32;;;;;;;3.13;1.60;;;5.20;99.90;;;;;;5014102;28;20053;-84
2022/02/13 09:20:57;;;;;;;4.17;1.73;;;5.30;99.90;;;;;;5013985;28;20501;-85
2022/02/13 09:23:23;;;;;;;4.80;1.70;;;5.40;99.90;;;;;;5013707;28;20103;-85
2022/02/13 09:25:50;;;;;;;3.30;1.77;;;5.60;99.90;;;;;;5014111;28;20022;-86
2022/02/13 09:28:17;;;;;;;2.77;1.50;;;5.70;99.90;;;;;;4996632;28;20069;-86
2022/02/13 09:30:46;;;;;;;3.43;1.73;;;5.80;99.90;;;;;;4996812;28;20049;-86
2022/02/13 09:33:12;;;;;;;5.03;2.00;;;5.80;99.90;;;;;;4996652;28;20022;-85
2022/02/13 09:35:38;;;;;;;4.40;1.70;;;5.90;99.90;;;;;;5014187;28;20030;-85
2022/02/13 09:38:04;;;;;;;4.70;1.80;;;6.10;99.90;;;;;;5013822;28;20083;-84
2022/02/13 09:40:33;;;;;;;3.20;1.57;;;6.10;99.90;;;;;;5014476;28;20108;-84
2022/02/13 09:43:03;;;;;;;4.37;1.73;;;6.20;99.90;;;;;;5014112;28;20050;-84
2022/02/13 09:45:30;;;;;;;3.60;1.70;;;6.20;99.90;;;;;;4996796;28;20029;-84
2022/02/13 09:47:59;;;;;;;2.97;1.70;;;6.30;99.90;;;;;;5014878;28;20022;-85
2022/02/13 09:50:24;;;;;;;3.70;1.87;;;6.40;99.90;;;;;;4997172;28;20030;-84
2022/02/13 09:52:54;;;;;;;5.03;1.90;;;6.50;99.90;;;;;;4995762;28;20018;-84
2022/02/13 09:55:21;;;;;;;3.07;1.80;;;6.50;99.90;;;;;;5014454;28;20080;-84
2022/02/13 09:58:05;;;;;;;8.70;2.00;;;6.70;99.90;;;;;;4996909;28;20396;-85
2022/02/13 10:00:50;;;;;;;4.30;2.00;;;6.80;99.90;;;;;;5014185;28;20030;-76
2022/02/13 10:03:21;;;;;;;6.53;2.00;;;6.90;99.90;;;;;;5012836;28;20072;-76
2022/02/13 10:05:48;;;;;;;4.93;2.03;;;7.00;99.90;;;;;;5013091;28;20157;-76
2022/02/13 10:08:30;;;;;;;4.20;2.20;;;7.10;99.90;;;;;;5012914;28;20037;-76
2022/02/13 10:11:17;;;;;;;8.00;1.87;;;7.20;99.90;;;;;;5013240;28;20018;-77
2022/02/13 10:13:48;;;;;;;4.07;1.90;;;7.30;99.90;;;;;;5013048;28;20099;-76
2022/02/13 10:16:36;;;;;;;4.97;1.80;;;7.40;99.90;;;;;;5013259;28;20030;-76
2022/02/13 10:19:10;;;;;;;4.40;2.30;;;7.50;99.90;;;;;;4995598;28;20036;-76
2022/02/13 10:21:51;;;;;;;7.63;2.38;;;7.60;99.90;;;;;;5013532;28;20037;-77
2022/02/13 10:24:30;;;;;;;8.73;2.50;;;7.70;99.90;;;;;;5012903;28;20037;-76
2022/02/13 10:26:56;;;;;;;4.90;2.30;;;7.80;99.90;;;;;;5017236;28;20028;-77
2022/02/13 10:29:30;;;;;;;5.77;2.50;;;8.00;99.90;;;;;;4996611;28;20026;-77
2022/02/13 10:32:20;;;;;;;6.03;2.80;;;8.20;99.90;;;;;;4995831;28;20108;-76
2022/02/13 10:34:56;;;;;;;7.60;2.70;;;8.30;99.90;;;;;;5013068;28;20033;-77
2022/02/13 10:37:44;;;;;;;7.60;2.63;;;8.40;99.90;;;;;;5013369;28;20100;-77
2022/02/13 10:40:15;;;;;;;9.00;3.07;;;8.40;99.90;;;;;;5011989;28;20499;-77
2022/02/13 10:42:43;;;;;;;4.40;2.40;;;8.60;99.90;;;;;;5012029;28;20058;-77
2022/02/13 10:45:28;;;;;;;6.07;2.90;;;8.60;99.90;;;;;;5011708;28;20084;-77
2022/02/13 10:48:01;;;;;;;12.23;3.23;;;8.70;99.90;;;;;;5011570;28;20030;-77
2022/02/13 10:50:30;;;;;;;7.70;2.80;;;8.80;99.90;;;;;;5011854;28;20022;-77
2022/02/13 10:52:59;;;;;;;8.77;2.93;;;8.80;99.50;;;;;;5011815;28;20032;-77
2022/02/13 10:55:25;;;;;;;6.47;2.40;;;8.90;99.90;;;;;;5011474;28;20790;-77
2022/02/13 10:57:51;;;;;;;5.70;2.23;;;9.20;99.30;;;;;;5011769;28;20030;-78
2022/02/13 11:00:18;;;;;;;7.95;2.65;;;9.30;99.70;;;;;;5009937;28;20030;-78
2022/02/13 11:02:48;;;;;;;9.13;2.50;;;9.70;98.90;;;;;;5006863;28;20034;-78
2022/02/13 11:05:15;;;;;;;5.97;2.47;;;9.70;98.10;;;;;;5011864;28;20041;-78
2022/02/13 11:07:43;;;;;;;5.53;2.40;;;9.80;97.50;;;;;;5012097;28;20037;-78
2022/02/13 11:10:25;;;;;;;4.65;2.55;;;9.80;97.30;;;;;;5012008;28;20483;-78
2022/02/13 11:12:54;;;;;;;5.25;2.20;;;9.90;97.10;;;;;;5011994;28;20029;-78
2022/02/13 11:15:22;;;;;;;5.95;2.88;;;9.80;97.50;;;;;;5011838;28;20037;-79
2022/02/13 11:17:50;;;;;;;7.45;2.97;;;9.70;97.90;;;;;;5011798;28;20072;-78
2022/02/13 11:20:18;;;;;;;9.18;2.67;;;9.70;98.60;;;;;;5011903;28;20026;-78
2022/02/13 11:22:53;;;;;;;9.20;3.65;;;9.70;98.60;;;;;;4992662;28;20046;-64
2022/02/13 11:25:50;;;;;;;6.28;2.75;;;9.80;98.40;;;;;;4993924;28;20522;-64
2022/02/13 11:28:16;;;;;;;9.38;2.33;;;10.00;97.90;;;;;;5000292;28;20029;-63
2022/02/13 11:30:42;;;;;;;7.60;2.40;;;10.20;97.70;;;;;;5007566;28;20027;-64
2022/02/13 11:33:28;;;;;;;8.65;3.17;;;10.30;97.50;;;;;;5008716;28;20144;-63
2022/02/13 11:35:57;;;;;;;10.60;3.00;;;10.30;97.60;;;;;;5006005;28;20030;-64
2022/02/13 11:38:46;;;;;;;10.18;2.67;;;10.30;97.60;;;;;;5011545;28;20061;-64
2022/02/13 11:41:16;;;;;;;8.95;3.00;;;10.40;98.50;;;;;;5011745;28;20029;-64
2022/02/13 11:43:45;;;;;;;9.90;2.60;;;10.60;98.10;;;;;;5011839;28;20383;-64
2022/02/13 11:46:12;;;;;;;7.60;2.85;;;10.70;97.80;;;;;;5011688;28;20479;-65
2022/02/13 11:48:44;;;;;;;7.35;2.75;;;10.90;97.70;;;;;;5011540;28;20153;-65
2022/02/13 11:51:12;;;;;;;5.15;2.50;;;11.40;97.90;;;;;;5011789;28;20096;-65
2022/02/13 11:53:41;;;;;;;8.10;2.88;;;11.40;96.10;;;;;;5011898;28;20029;-64
2022/02/13 11:56:27;;;;;;;6.80;2.67;;;11.40;96.30;;;;;;5011652;28;20156;-65
2022/02/13 11:58:55;;;;;;;7.60;3.05;;;11.40;95.80;;;;;;5008845;28;20021;-65
2022/02/13 12:01:36;;;;;;;7.78;2.90;;;11.70;94.60;;;;;;5003718;28;20087;-64
2022/02/13 12:04:07;;;;;;;9.07;2.70;;;11.80;94.50;;;;;;5005197;28;20038;-64
2022/02/13 12:06:34;;;;;;;7.30;3.05;;;11.90;95.30;;;;;;5008339;28;20030;-65
2022/02/13 12:09:03;;;;;;;11.32;2.70;;;12.10;94.80;;;;;;5006979;28;20031;-62
2022/02/13 12:11:34;;;;;;;11.57;3.25;;;12.20;93.30;;;;;;5009338;28;20018;-63
2022/02/13 12:14:23;;;;;;;6.90;2.63;;;12.20;93.30;;;;;;5006784;28;20026;-63
2022/02/13 12:17:00;;;;;;;6.57;3.15;;;11.90;94.10;;;;;;5010478;28;20551;-63
2022/02/13 12:19:37;;;;;;;8.55;2.95;;;12.20;92.20;;;;;;5011624;28;20061;-63
2022/02/13 12:22:15;;;;;;;6.93;2.85;;;12.40;92.90;;;;;;5009420;28;20046;-63
2022/02/13 12:24:41;;;;;;;10.68;2.88;;;12.60;92.10;;;;;;5010812;28;20442;-64
2022/02/13 12:27:07;;;;;;;7.95;2.47;;;12.20;91.80;;;;;;5013676;28;20125;-63
2022/02/13 12:29:33;;;;;;;7.55;3.35;;;12.00;93.10;;;;;;5007389;28;20022;-63
2022/02/13 12:32:10;;;;;;;6.97;3.28;;;12.00;93.70;;;;;;5009206;28;20065;-63
2022/02/13 12:35:11;;;;;;;6.70;2.60;;;12.10;92.50;;;;;;5006376;28;20092;-64
2022/02/13 12:37:46;;;;;;;5.70;2.60;;;12.50;90.90;;;;;;4973153;28;20034;-64
2022/02/13 12:40:18;;;;;;;7.07;2.53;;;12.90;91.90;;;;;;5014712;28;20045;-63
2022/02/13 12:42:54;;;;;;;6.72;2.85;;;12.90;91.50;;;;;;5015099;28;20033;-64
2022/02/13 12:45:21;;;;;;;8.13;3.72;;;12.70;88.50;;;;;;5014616;28;20537;-64
2022/02/13 12:47:52;;;;;;;7.60;3.00;;;12.90;90.40;;;;;;5014595;28;20012;-63
2022/02/13 12:50:20;;;;;;;5.60;2.75;;;12.70;91.60;;;;;;5005905;28;20037;-63
2022/02/13 12:52:46;;;;;;;8.85;2.80;;;12.60;90.40;;;;;;5011410;28;20072;-63